Marcos A. Gelabert International Airport
MPMG : now visible

Airfield :











YOU CAN JOIN US ON...

 
LOGIN :

Register | Disclaimer

   EN    FR    IT 

 









Legend :    VFR   Marginal VFR   IFR   Intensive IFR   Very Intensive IFR
Visi :
Ceiling :
>= 8 km
>= 3000ft
5 to 8 km
1000 to 3000 ft
1500m to 5 km
500 to 1000 ft
800 to 1500m
200 to 500 ft
< 800m
< 200 ft
Symbols :   Thunderstorms  Fog  Heavy snow  Heavy precipitations  Wind > 20 kt






- Airport Elevation : 31 ft
- IATA code : PAC


MPMG - Marcos A. Gelabert International

CURRENT METAR :
  • 301600Z 01013KT 340V040 9000 SCT018 31/21 Q1011 NOSIG

EXPIRED METARs :
  • 301400Z 33009KT 9000 FEW018 SCT080 29/23 Q1012 NOSIG

TAF TAF MPMG
Valid from the 30 at 12:00 until the 31 at 00:00 UTC


301100Z 3012/3024 35008KT 9999 SCT018
TEMPO 3016/3018 18005KT SCT018 SCT090
BECMG 3019/3022 36016KT



MET'MAP, your aeronautical weather chart ! - Copyright ORBIFLY December 2007 - Disclaimer

ORBIFLY MET'MAP TEAM :

Programming & Development : Alexandra Zaïnal
Concept & original design : Baudouin d'Aumeries
Assistance for programming : Marc-Olivier Méhu
Technical & hardware support : Manuel Goepfert

Contact : metmap@orbifly.com




SOURCES & CREDITS :

   NOAA       Earth
Advisory